Time;durP1;ratioP1;P1;durP2;ratioP2;P2;SDS_P1;SDS_P2;PMS_P1;PMS_P2;Temp;Humidity;BMP_temperature;BMP_pressure;BME280_temperature;BME280_humidity;BME280_pressure;Samples;Min_cycle;Max_cycle;Signal;HPM_P1;HPM_P2
2020/12/10 00:00:55;;;;;;;25.30;16.63;;;1.50;99.90;;;;;;5051051;28;20040;-80
2020/12/10 00:03:21;;;;;;;24.48;16.52;;;1.50;99.90;;;;;;5032486;28;20052;-84
2020/12/10 00:05:46;;;;;;;24.77;16.58;;;1.50;99.90;;;;;;5032925;28;20032;-79
2020/12/10 00:08:12;;;;;;;28.88;18.67;;;1.50;99.90;;;;;;5050921;28;20481;-84
2020/12/10 00:10:38;;;;;;;31.35;19.30;;;1.50;99.90;;;;;;5032547;28;20377;-84
2020/12/10 00:13:03;;;;;;;26.25;17.90;;;1.40;99.90;;;;;;5032614;28;20039;-81
2020/12/10 00:15:29;;;;;;;29.88;19.40;;;1.40;99.90;;;;;;5049992;28;20032;-84
2020/12/10 00:17:54;;;;;;;33.22;19.50;;;1.40;99.90;;;;;;5031221;28;20071;-83
2020/12/10 00:20:20;;;;;;;33.58;20.75;;;1.40;99.90;;;;;;5012486;28;20375;-83
2020/12/10 00:22:46;;;;;;;32.60;19.58;;;1.30;99.90;;;;;;5013081;28;20080;-80
2020/12/10 00:25:11;;;;;;;26.65;17.92;;;1.30;99.90;;;;;;5050000;28;20037;-79
2020/12/10 00:27:38;;;;;;;24.88;16.85;;;1.20;99.90;;;;;;5049973;28;20049;-83
2020/12/10 00:30:06;;;;;;;25.02;16.65;;;1.20;99.90;;;;;;5031230;28;20032;-83
2020/12/10 00:32:32;;;;;;;24.00;16.48;;;1.20;99.90;;;;;;5011999;28;20080;-80
2020/12/10 00:34:57;;;;;;;25.58;15.75;;;1.20;99.90;;;;;;5046625;28;20025;-83
2020/12/10 00:37:27;;;;;;;21.60;14.25;;;1.20;99.90;;;;;;5032779;28;20433;-83
2020/12/10 00:39:53;;;;;;;21.38;14.23;;;1.10;99.90;;;;;;5032068;28;20072;-80
2020/12/10 00:42:19;;;;;;;18.55;13.10;;;1.10;99.90;;;;;;5050442;28;20145;-83
2020/12/10 00:44:45;;;;;;;21.45;14.02;;;1.00;99.90;;;;;;5029081;28;20225;-79
2020/12/10 00:47:10;;;;;;;26.58;16.50;;;0.90;99.90;;;;;;5032177;28;20051;-83
2020/12/10 00:49:36;;;;;;;27.15;17.30;;;0.90;99.90;;;;;;5031728;28;20124;-80
2020/12/10 00:52:02;;;;;;;26.67;16.90;;;1.00;99.90;;;;;;5049906;28;20041;-80
2020/12/10 00:54:28;;;;;;;23.85;15.90;;;0.90;99.90;;;;;;5049707;28;20055;-84
2020/12/10 00:56:54;;;;;;;21.05;14.02;;;0.90;99.90;;;;;;5032344;28;20448;-83
2020/12/10 00:59:19;;;;;;;20.77;14.65;;;1.00;99.90;;;;;;5031312;28;20078;-83
2020/12/10 01:01:45;;;;;;;24.63;16.73;;;0.90;99.90;;;;;;5032026;28;20043;-83
2020/12/10 01:04:12;;;;;;;25.40;16.83;;;0.90;99.90;;;;;;5031185;28;20119;-80
2020/12/10 01:06:37;;;;;;;21.80;15.50;;;0.90;99.90;;;;;;5031649;28;20036;-80
2020/12/10 01:09:06;;;;;;;24.00;15.50;;;0.90;99.90;;;;;;5031837;28;20025;-83
2020/12/10 01:11:32;;;;;;;22.75;14.77;;;0.80;99.90;;;;;;5031519;28;20470;-84
2020/12/10 01:13:57;;;;;;;23.33;14.57;;;0.80;99.90;;;;;;5017851;28;20068;-83
2020/12/10 01:16:24;;;;;;;19.30;13.00;;;0.80;99.90;;;;;;5012003;28;20501;-82
2020/12/10 01:18:50;;;;;;;17.50;12.25;;;0.90;99.90;;;;;;5023301;28;20548;-80
2020/12/10 01:21:25;;;;;;;18.70;12.38;;;0.80;99.90;;;;;;5049588;28;20131;-83
2020/12/10 01:23:51;;;;;;;19.23;12.65;;;0.80;99.90;;;;;;5020640;28;20414;-80
2020/12/10 01:26:16;;;;;;;21.63;12.07;;;0.90;99.90;;;;;;5029561;28;20022;-83
2020/12/10 01:28:42;;;;;;;18.63;12.00;;;0.90;99.90;;;;;;5011370;28;20029;-83
2020/12/10 01:31:12;;;;;;;17.90;10.52;;;0.90;99.90;;;;;;5011859;28;20049;-83
2020/12/10 01:33:37;;;;;;;16.55;10.98;;;1.00;99.90;;;;;;5015869;28;20044;-83
2020/12/10 01:36:03;;;;;;;15.27;10.68;;;1.00;99.90;;;;;;5031442;28;20025;-83
2020/12/10 01:38:28;;;;;;;19.58;11.48;;;1.00;99.90;;;;;;5030135;28;20041;-80
2020/12/10 01:40:54;;;;;;;15.38;10.85;;;1.00;99.90;;;;;;5030672;28;20032;-83
2020/12/10 01:43:20;;;;;;;15.95;10.13;;;0.90;99.90;;;;;;5031215;28;20044;-84
2020/12/10 01:45:45;;;;;;;14.52;9.52;;;1.00;99.90;;;;;;5028736;28;20120;-83
2020/12/10 01:48:11;;;;;;;16.40;10.68;;;1.00;99.90;;;;;;5017457;28;20198;-83
2020/12/10 01:50:36;;;;;;;17.52;8.88;;;1.00;99.90;;;;;;5030559;28;20055;-83
2020/12/10 01:53:03;;;;;;;15.75;10.15;;;1.10;99.90;;;;;;5026077;28;20032;-83
2020/12/10 01:55:29;;;;;;;15.98;9.95;;;1.10;99.90;;;;;;5030968;28;20028;-83
2020/12/10 01:57:54;;;;;;;16.55;10.32;;;1.00;99.90;;;;;;5034936;28;20032;-83
2020/12/10 02:00:20;;;;;;;17.08;9.88;;;0.90;99.90;;;;;;5053020;28;20040;-83
2020/12/10 02:02:46;;;;;;;17.38;10.73;;;0.90;99.90;;;;;;5042263;28;20033;-81
2020/12/10 02:05:11;;;;;;;15.73;9.88;;;1.00;99.90;;;;;;5052636;28;20037;-83
2020/12/10 02:07:37;;;;;;;15.20;10.25;;;0.90;99.90;;;;;;5033967;28;20037;-83
2020/12/10 02:10:03;;;;;;;21.50;11.98;;;0.90;99.90;;;;;;5031645;28;20647;-83
2020/12/10 02:12:29;;;;;;;20.77;11.05;;;1.00;99.90;;;;;;5030951;28;20037;-83
2020/12/10 02:14:54;;;;;;;16.80;10.90;;;0.90;99.90;;;;;;5030508;28;20138;-80
2020/12/10 02:17:20;;;;;;;20.33;11.30;;;0.90;99.90;;;;;;5049559;28;20458;-83
2020/12/10 02:19:46;;;;;;;19.23;11.98;;;0.90;99.90;;;;;;5031084;28;20082;-80
2020/12/10 02:22:11;;;;;;;21.60;12.88;;;0.80;99.90;;;;;;5032446;28;20053;-83
2020/12/10 02:24:37;;;;;;;20.73;11.68;;;0.70;99.90;;;;;;5027460;28;20053;-80
2020/12/10 02:27:03;;;;;;;22.38;13.13;;;0.70;99.90;;;;;;5023617;28;20038;-82
2020/12/10 02:29:29;;;;;;;25.48;15.13;;;0.70;99.90;;;;;;5020055;28;20034;-80
2020/12/10 02:31:54;;;;;;;22.98;13.93;;;0.70;99.90;;;;;;5025665;28;20457;-80
2020/12/10 02:34:20;;;;;;;25.00;15.60;;;0.70;99.90;;;;;;5025164;28;20037;-80
2020/12/10 02:36:46;;;;;;;22.20;14.63;;;0.80;99.90;;;;;;5027841;28;20025;-81
2020/12/10 02:39:12;;;;;;;20.58;13.25;;;0.90;99.90;;;;;;5028715;28;20033;-82
2020/12/10 02:41:38;;;;;;;29.70;15.10;;;0.80;99.90;;;;;;5026993;28;20390;-83
2020/12/10 02:44:05;;;;;;;26.52;16.42;;;0.80;99.90;;;;;;5025886;28;20057;-80
2020/12/10 02:46:31;;;;;;;25.73;15.23;;;0.80;99.90;;;;;;5028283;28;20467;-80
2020/12/10 02:48:57;;;;;;;21.58;13.98;;;0.70;99.90;;;;;;5028772;28;20120;-83
2020/12/10 02:51:23;;;;;;;21.98;13.88;;;0.70;99.90;;;;;;5027284;28;20125;-82
2020/12/10 02:53:48;;;;;;;24.35;13.23;;;0.70;99.90;;;;;;5030265;28;20048;-81
2020/12/10 02:56:15;;;;;;;20.55;13.23;;;0.70;99.90;;;;;;5027465;28;20033;-83
2020/12/10 02:58:43;;;;;;;25.33;14.23;;;0.60;99.90;;;;;;5026710;28;20216;-83
2020/12/10 03:01:09;;;;;;;20.52;13.38;;;0.60;99.90;;;;;;5029232;28;20108;-80
2020/12/10 03:03:36;;;;;;;20.33;12.68;;;0.60;99.90;;;;;;5028488;28;20554;-80
2020/12/10 03:06:06;;;;;;;22.23;12.93;;;0.70;99.90;;;;;;5028990;28;20513;-83
2020/12/10 03:08:33;;;;;;;21.33;12.65;;;0.70;99.90;;;;;;5027482;28;20129;-80
2020/12/10 03:10:59;;;;;;;22.00;12.85;;;0.70;99.90;;;;;;5028261;28;20059;-83
2020/12/10 03:13:24;;;;;;;22.80;13.65;;;0.70;99.90;;;;;;5027691;28;20454;-83
2020/12/10 03:15:50;;;;;;;22.05;12.75;;;0.60;99.90;;;;;;5027699;28;20057;-80
2020/12/10 03:18:16;;;;;;;22.10;13.25;;;0.60;99.90;;;;;;5026700;28;20121;-82
2020/12/10 03:20:41;;;;;;;21.85;12.43;;;0.50;99.90;;;;;;5033453;28;20087;-80
2020/12/10 03:23:07;;;;;;;20.92;11.57;;;0.40;99.90;;;;;;5033630;28;20107;-82
2020/12/10 03:25:33;;;;;;;21.42;11.93;;;0.30;99.90;;;;;;5024543;28;20405;-80
2020/12/10 03:27:59;;;;;;;20.80;11.98;;;0.30;99.90;;;;;;5029764;28;20045;-83
2020/12/10 03:30:24;;;;;;;23.05;13.55;;;0.30;99.90;;;;;;5029804;28;20029;-80
2020/12/10 03:32:51;;;;;;;19.77;12.20;;;0.30;99.90;;;;;;5028796;28;20033;-81
2020/12/10 03:35:18;;;;;;;14.88;9.85;;;0.30;99.90;;;;;;5030551;28;20053;-83
2020/12/10 03:37:43;;;;;;;16.67;9.10;;;0.20;99.90;;;;;;5029673;28;20403;-82
2020/12/10 03:40:09;;;;;;;12.45;8.68;;;0.10;99.90;;;;;;5029890;28;20048;-82
2020/12/10 03:42:35;;;;;;;14.98;8.45;;;0.10;99.90;;;;;;5028541;28;20099;-80
2020/12/10 03:45:01;;;;;;;14.23;8.65;;;0.20;99.90;;;;;;5048225;28;20049;-82
2020/12/10 03:47:26;;;;;;;12.27;7.68;;;0.20;99.90;;;;;;5028574;28;20068;-82
2020/12/10 03:49:52;;;;;;;11.77;6.63;;;0.20;99.90;;;;;;5029930;28;20037;-80
2020/12/10 03:52:18;;;;;;;11.88;6.75;;;0.20;99.90;;;;;;5046242;28;20108;-82
2020/12/10 03:54:44;;;;;;;10.68;5.18;;;0.30;99.90;;;;;;5029261;28;20037;-81
2020/12/10 03:57:10;;;;;;;8.18;4.30;;;0.10;99.90;;;;;;5047989;28;20021;-83
2020/12/10 03:59:35;;;;;;;8.13;4.22;;;0.10;99.90;;;;;;5029647;28;20051;-82
2020/12/10 04:02:01;;;;;;;8.80;4.57;;;0.10;99.90;;;;;;5028338;28;20029;-82
2020/12/10 04:04:27;;;;;;;8.93;5.07;;;0.10;99.90;;;;;;5029537;28;20040;-82
2020/12/10 04:06:52;;;;;;;9.68;5.13;;;0.10;99.90;;;;;;5026658;28;20029;-83
2020/12/10 04:09:18;;;;;;;9.35;5.32;;;0.20;99.90;;;;;;5029163;28;20124;-83
2020/12/10 04:11:44;;;;;;;8.18;4.60;;;0.10;99.90;;;;;;5027432;28;20382;-80
2020/12/10 04:14:09;;;;;;;9.70;4.68;;;0.10;99.90;;;;;;5046760;28;20080;-83
2020/12/10 04:16:36;;;;;;;11.57;5.72;;;0.10;99.90;;;;;;5029207;28;20029;-80
2020/12/10 04:19:01;;;;;;;10.27;5.18;;;0.20;99.90;;;;;;5047106;28;20029;-83
2020/12/10 04:21:27;;;;;;;10.13;5.40;;;0.10;99.90;;;;;;5028868;28;20044;-81
2020/12/10 04:23:53;;;;;;;9.25;5.20;;;0.10;99.90;;;;;;5045024;28;20465;-83
2020/12/10 04:26:19;;;;;;;14.15;6.88;;;0.10;99.90;;;;;;5027962;28;20045;-79
2020/12/10 04:28:45;;;;;;;12.30;6.38;;;0.10;99.90;;;;;;5046343;28;20036;-83
2020/12/10 04:31:10;;;;;;;15.43;7.80;;;0.10;99.90;;;;;;5028549;28;20032;-83
2020/12/10 04:33:36;;;;;;;16.25;7.82;;;0.00;99.90;;;;;;5014073;28;20048;-80
2020/12/10 04:36:03;;;;;;;15.77;7.70;;;0.00;99.90;;;;;;5027268;28;20049;-83
2020/12/10 04:38:30;;;;;;;12.93;6.78;;;-0.10;99.90;;;;;;5019875;28;20098;-83
2020/12/10 04:40:58;;;;;;;11.88;5.95;;;-0.10;99.90;;;;;;5029051;28;20490;-83
2020/12/10 04:43:27;;;;;;;8.50;5.20;;;-0.10;99.90;;;;;;5025382;28;20426;-80
2020/12/10 04:45:59;;;;;;;8.82;4.80;;;-0.10;99.90;;;;;;5041675;28;20037;-82
2020/12/10 04:48:30;;;;;;;7.65;3.83;;;-0.10;99.90;;;;;;5025058;28;20497;-82
2020/12/10 04:50:58;;;;;;;6.30;3.45;;;-0.10;99.90;;;;;;5025791;28;20037;-82
2020/12/10 04:53:28;;;;;;;9.45;4.68;;;-0.20;99.90;;;;;;5019058;28;20439;-82
2020/12/10 04:56:03;;;;;;;7.18;4.28;;;-0.40;99.90;;;;;;5020577;28;20048;-83
2020/12/10 04:58:29;;;;;;;10.30;5.03;;;-0.40;99.90;;;;;;5037602;28;20056;-80
2020/12/10 05:00:59;;;;;;;10.02;5.97;;;-0.30;99.90;;;;;;5042862;28;20049;-80
2020/12/10 05:03:25;;;;;;;11.57;6.13;;;-0.30;99.90;;;;;;5042491;28;20182;-82
2020/12/10 05:05:51;;;;;;;13.13;7.03;;;-0.30;99.90;;;;;;5044862;28;20130;-83
2020/12/10 05:08:30;;;;;;;14.27;7.10;;;-0.20;99.90;;;;;;5027348;28;20485;-79
2020/12/10 05:10:56;;;;;;;12.18;7.13;;;-0.30;99.90;;;;;;5028559;28;20041;-82
2020/12/10 05:13:22;;;;;;;15.75;7.90;;;-0.20;99.90;;;;;;5026703;28;20067;-80
2020/12/10 05:15:47;;;;;;;15.77;7.82;;;-0.30;99.90;;;;;;5046219;28;20569;-83
2020/12/10 05:18:14;;;;;;;13.45;7.25;;;-0.20;99.90;;;;;;5027022;28;20420;-81
2020/12/10 05:20:42;;;;;;;15.75;8.25;;;-0.30;99.90;;;;;;5046296;28;20041;-83
2020/12/10 05:23:08;;;;;;;15.00;8.40;;;-0.30;99.90;;;;;;5026506;28;20063;-83
2020/12/10 05:25:53;;;;;;;17.23;8.63;;;-0.40;99.90;;;;;;5028163;28;20441;-83
2020/12/10 05:28:20;;;;;;;21.23;10.70;;;-0.40;99.90;;;;;;5026507;28;20041;-80
2020/12/10 05:31:01;;;;;;;18.17;9.90;;;-0.40;99.90;;;;;;5045504;28;20057;-81
2020/12/10 05:33:27;;;;;;;19.73;10.23;;;-0.40;99.90;;;;;;5031593;28;20535;-83
2020/12/10 05:36:09;;;;;;;20.70;11.75;;;-0.40;99.90;;;;;;5031482;28;20124;-83
2020/12/10 05:38:51;;;;;;;;;;;-0.40;99.90;;;;;;5029017;28;20086;-82
2020/12/10 05:41:19;;;;;;;19.13;10.45;;;-0.40;99.90;;;;;;5031716;28;20357;-82
2020/12/10 05:43:44;;;;;;;24.98;11.95;;;-0.40;99.90;;;;;;5029902;28;20095;-80
2020/12/10 05:46:23;;;;;;;21.98;12.10;;;-0.40;99.90;;;;;;5049897;28;20462;-82
2020/12/10 05:48:50;;;;;;;23.48;11.45;;;-0.50;99.90;;;;;;5048319;28;20362;-82
2020/12/10 05:51:21;;;;;;;21.70;11.10;;;-0.50;99.90;;;;;;5049643;28;20120;-80
2020/12/10 05:53:48;;;;;;;20.10;11.38;;;-0.50;99.90;;;;;;5030193;28;20025;-80
2020/12/10 05:56:15;;;;;;;22.75;11.10;;;-0.50;99.90;;;;;;5048505;28;20439;-82
2020/12/10 05:58:52;;;;;;;20.48;10.38;;;-0.50;99.90;;;;;;5029620;28;20361;-81
2020/12/10 06:01:36;;;;;;;16.08;9.30;;;-0.50;99.90;;;;;;5040202;28;20043;-80
2020/12/10 06:04:03;;;;;;;18.55;10.65;;;-0.50;99.90;;;;;;5028974;28;20144;-80
2020/12/10 06:06:30;;;;;;;19.90;10.38;;;-0.50;99.90;;;;;;5036223;28;20037;-82
2020/12/10 06:09:03;;;;;;;15.30;8.95;;;-0.60;99.90;;;;;;5031630;28;20037;-82
2020/12/10 06:11:31;;;;;;;17.75;9.60;;;-0.70;99.90;;;;;;5040407;28;20040;-82
2020/12/10 06:14:02;;;;;;;19.42;10.40;;;-0.60;99.90;;;;;;5028983;28;20025;-80
2020/12/10 06:16:28;;;;;;;21.07;10.67;;;-0.70;99.90;;;;;;5026804;28;20120;-83
2020/12/10 06:19:09;;;;;;;21.80;9.93;;;-0.70;99.90;;;;;;5024422;28;20124;-80
2020/12/10 06:21:44;;;;;;;16.70;9.07;;;-0.70;99.90;;;;;;5031186;28;20052;-83
2020/12/10 06:24:25;;;;;;;16.58;9.00;;;-0.70;99.90;;;;;;5040246;28;20474;-82
2020/12/10 06:26:54;;;;;;;18.20;9.23;;;-0.70;99.90;;;;;;5030328;28;20071;-83
2020/12/10 06:29:25;;;;;;;16.30;9.50;;;-0.70;99.90;;;;;;5025006;28;20457;-83
2020/12/10 06:32:08;;;;;;;19.15;9.55;;;-0.80;99.90;;;;;;5023130;28;20040;-82
2020/12/10 06:34:33;;;;;;;18.20;9.88;;;-0.80;99.90;;;;;;5028038;28;20040;-79
2020/12/10 06:37:28;;;;;;;16.55;9.93;;;-0.80;99.90;;;;;;5043146;28;20528;-82
2020/12/10 06:40:04;;;;;;;18.15;10.27;;;-0.80;99.90;;;;;;5043283;28;20036;-84
2020/12/10 06:42:47;;;;;;;18.85;10.52;;;-0.80;99.90;;;;;;5042110;28;20033;-83
2020/12/10 06:45:25;;;;;;;;;;;-0.90;99.90;;;;;;5036867;28;20044;-81
2020/12/10 06:47:50;;;;;;;22.15;11.98;;;-0.90;99.90;;;;;;5023443;28;19917;-83
2020/12/10 06:50:27;;;;;;;23.58;11.82;;;-0.90;99.90;;;;;;5012360;28;20041;-83
2020/12/10 06:53:18;;;;;;;25.05;12.75;;;-1.00;99.90;;;;;;5045956;28;20032;-83
2020/12/10 06:56:16;;;;;;;14.35;8.45;;;-1.10;99.90;;;;;;5045821;28;20462;-83
2020/12/10 06:58:43;;;;;;;20.08;11.52;;;-1.10;99.90;;;;;;5039736;28;20564;-82
2020/12/10 07:01:27;;;;;;;22.85;14.35;;;-1.10;99.90;;;;;;5019521;28;20437;-80
2020/12/10 07:07:15;;;;;;;31.98;18.27;;;-1.10;99.90;;;;;;5037374;28;20588;-83
2020/12/10 07:09:55;;;;;;;29.65;16.95;;;-1.10;99.90;;;;;;5042986;28;20036;-83
2020/12/10 07:12:21;;;;;;;23.98;15.30;;;-1.10;99.90;;;;;;5028692;28;20025;-80
2020/12/10 07:14:48;;;;;;;25.52;15.27;;;-1.10;99.90;;;;;;5023878;28;20040;-81
2020/12/10 07:17:13;;;;;;;28.85;17.13;;;-1.10;99.90;;;;;;5030309;28;20037;-81
2020/12/10 07:19:39;;;;;;;25.60;15.55;;;-1.10;99.90;;;;;;5034369;28;20032;-83
2020/12/10 07:22:05;;;;;;;33.35;17.80;;;-1.10;99.90;;;;;;5024002;28;20044;-83
2020/12/10 07:24:31;;;;;;;28.35;17.60;;;-1.20;99.90;;;;;;5027975;28;20063;-81
2020/12/10 07:26:56;;;;;;;29.27;17.92;;;-1.10;99.90;;;;;;5030162;28;20095;-79
2020/12/10 07:29:22;;;;;;;31.80;17.98;;;-1.10;99.90;;;;;;5019694;28;20029;-83
2020/12/10 07:31:47;;;;;;;31.77;17.95;;;-1.10;99.90;;;;;;5027674;28;20029;-81
2020/12/10 07:34:13;;;;;;;29.95;18.65;;;-1.10;99.90;;;;;;5026067;28;20029;-80
2020/12/10 07:36:47;;;;;;;30.10;17.65;;;-1.10;99.90;;;;;;5041242;28;20454;-80
2020/12/10 07:39:13;;;;;;;33.25;20.15;;;-1.10;99.90;;;;;;5018485;28;20033;-81
2020/12/10 07:41:39;;;;;;;31.73;19.67;;;-1.10;99.90;;;;;;5019359;28;20029;-83
2020/12/10 07:44:05;;;;;;;42.40;22.27;;;-1.10;99.90;;;;;;5026425;28;20061;-84
2020/12/10 07:46:36;;;;;;;41.72;20.92;;;-1.10;99.90;;;;;;5027429;28;20039;-81
2020/12/10 07:49:02;;;;;;;39.22;22.20;;;-1.10;99.90;;;;;;5023971;28;20025;-83
2020/12/10 07:51:27;;;;;;;43.67;21.60;;;-1.20;99.90;;;;;;5023029;28;20033;-81
2020/12/10 07:54:02;;;;;;;41.72;21.55;;;-1.20;99.90;;;;;;5024194;28;20377;-81
2020/12/10 07:56:30;;;;;;;40.47;20.83;;;-1.20;99.90;;;;;;5039351;28;20029;-81
2020/12/10 07:59:09;;;;;;;46.85;23.75;;;-1.10;99.90;;;;;;5041148;28;20033;-81
2020/12/10 08:01:56;;;;;;;38.22;22.25;;;-1.10;99.90;;;;;;5024017;28;20034;-81
2020/12/10 08:04:23;;;;;;;30.98;18.45;;;-1.00;99.90;;;;;;5038716;28;20033;-81
2020/12/10 08:06:50;;;;;;;35.42;21.08;;;-1.00;99.90;;;;;;5041908;28;20068;-81
2020/12/10 08:09:18;;;;;;;34.97;19.15;;;-1.00;99.90;;;;;;5018803;28;20055;-81
2020/12/10 08:11:53;;;;;;;35.20;20.73;;;-1.00;99.90;;;;;;5033470;28;20370;-81
2020/12/10 08:14:29;;;;;;;34.15;19.40;;;-0.90;99.90;;;;;;5022469;28;20525;-81
2020/12/10 08:16:55;;;;;;;35.47;20.00;;;-0.90;99.90;;;;;;5035986;28;20024;-84
2020/12/10 08:19:22;;;;;;;35.08;20.25;;;-1.00;99.90;;;;;;5022666;28;20045;-81
2020/12/10 08:21:49;;;;;;;33.42;18.13;;;-0.90;99.90;;;;;;5037686;28;20151;-83
2020/12/10 08:24:41;;;;;;;31.65;17.30;;;-0.90;99.90;;;;;;5016337;28;20068;-80
2020/12/10 08:27:10;;;;;;;33.97;18.58;;;-0.90;99.90;;;;;;5042538;28;20319;-80
2020/12/10 08:29:36;;;;;;;30.33;18.23;;;-0.90;99.90;;;;;;5039510;28;20048;-81
2020/12/10 08:32:09;;;;;;;34.10;19.10;;;-0.90;99.90;;;;;;5011878;28;20438;-81
2020/12/10 08:34:36;;;;;;;34.35;19.10;;;-1.00;99.90;;;;;;5016242;28;20029;-80
2020/12/10 08:37:06;;;;;;;30.98;19.13;;;-0.90;99.90;;;;;;5043849;28;20029;-81
2020/12/10 08:39:37;;;;;;;31.77;19.63;;;-0.90;99.90;;;;;;5020526;28;20058;-81
2020/12/10 08:42:04;;;;;;;40.00;18.98;;;-0.90;99.90;;;;;;5032581;28;20136;-83
2020/12/10 08:44:47;;;;;;;28.85;16.95;;;-0.90;99.90;;;;;;5025255;28;20059;-81
2020/12/10 08:47:13;;;;;;;27.48;15.93;;;-0.90;99.90;;;;;;5037353;28;20037;-81
2020/12/10 08:49:39;;;;;;;25.20;14.85;;;-0.90;99.90;;;;;;5025694;28;20033;-82
2020/12/10 08:52:05;;;;;;;22.85;13.30;;;-0.90;99.90;;;;;;5011694;28;20371;-82
2020/12/10 08:54:30;;;;;;;23.67;13.27;;;-0.90;99.90;;;;;;5022244;28;20044;-80
2020/12/10 08:57:08;;;;;;;18.52;11.43;;;-0.90;99.90;;;;;;5037459;28;20028;-81
2020/12/10 08:59:33;;;;;;;18.45;11.85;;;-0.80;99.90;;;;;;5032933;28;20065;-80
2020/12/10 09:01:59;;;;;;;21.90;11.20;;;-0.80;99.90;;;;;;5042606;28;20087;-81
2020/12/10 09:04:25;;;;;;;23.50;13.25;;;-0.80;99.90;;;;;;5011758;28;20044;-81
2020/12/10 09:06:50;;;;;;;28.45;14.00;;;-0.90;99.90;;;;;;5023971;28;20037;-84
2020/12/10 09:09:16;;;;;;;20.95;12.35;;;-0.90;99.90;;;;;;5016828;28;20045;-81
2020/12/10 09:11:46;;;;;;;32.00;16.63;;;-0.90;99.90;;;;;;5040224;28;20026;-81
2020/12/10 09:14:12;;;;;;;24.08;14.05;;;-0.90;99.90;;;;;;5021335;28;20587;-81
2020/12/10 09:16:38;;;;;;;29.65;15.82;;;-0.90;99.90;;;;;;5014924;28;20026;-82
2020/12/10 09:19:03;;;;;;;27.48;15.20;;;-0.80;99.90;;;;;;5035230;28;20044;-81
2020/12/10 09:21:36;;;;;;;36.22;19.20;;;-0.80;99.90;;;;;;5018125;28;20021;-81
2020/12/10 09:24:02;;;;;;;37.28;20.35;;;-0.80;99.90;;;;;;5040318;28;20123;-83
2020/12/10 09:26:28;;;;;;;30.88;17.02;;;-0.90;99.90;;;;;;5022877;28;20034;-81
2020/12/10 09:28:53;;;;;;;34.63;17.52;;;-0.90;99.90;;;;;;5034293;28;20041;-81
2020/12/10 09:31:19;;;;;;;34.55;18.85;;;-0.90;99.90;;;;;;5038631;28;20037;-81
2020/12/10 09:33:45;;;;;;;37.15;20.88;;;-0.90;99.90;;;;;;5035855;28;20127;-81
2020/12/10 09:36:11;;;;;;;34.97;20.00;;;-0.90;99.90;;;;;;5042091;28;20055;-81
2020/12/10 09:38:40;;;;;;;34.15;18.85;;;-0.90;99.90;;;;;;5036519;28;20032;-81
2020/12/10 09:41:06;;;;;;;30.35;18.23;;;-0.90;99.90;;;;;;5023581;28;20069;-81
2020/12/10 09:43:32;;;;;;;34.20;19.45;;;-0.90;99.90;;;;;;5021233;28;20041;-81
2020/12/10 09:46:08;;;;;;;34.08;20.63;;;-0.90;99.90;;;;;;5016506;28;20046;-81
2020/12/10 09:48:34;;;;;;;35.63;20.85;;;-0.80;99.90;;;;;;5024015;28;20044;-81
2020/12/10 09:51:00;;;;;;;36.53;19.73;;;-0.80;99.90;;;;;;5039863;28;20397;-81
2020/12/10 09:53:46;;;;;;;34.63;20.20;;;-0.80;99.90;;;;;;5032428;28;20033;-81
2020/12/10 09:58:43;;;;;;;47.20;21.35;;;-0.70;99.90;;;;;;5032041;28;20071;-83
2020/12/10 10:01:10;;;;;;;38.50;22.88;;;-0.90;99.90;;;;;;5043131;28;20041;-81
2020/12/10 10:03:36;;;;;;;34.25;22.13;;;-0.90;99.90;;;;;;5025308;28;20059;-81
2020/12/10 10:06:01;;;;;;;35.30;21.73;;;-0.90;99.90;;;;;;5036676;28;20473;-80
2020/12/10 10:08:29;;;;;;;35.67;18.10;;;-0.80;99.90;;;;;;5036047;28;20098;-81
2020/12/10 10:10:55;;;;;;;29.30;17.83;;;-0.80;99.90;;;;;;5016536;28;20041;-82
2020/12/10 10:13:21;;;;;;;33.45;18.38;;;-0.80;99.90;;;;;;5025034;28;20367;-81
2020/12/10 10:15:46;;;;;;;29.00;15.32;;;-0.70;99.90;;;;;;5041882;28;20025;-81
2020/12/10 10:18:15;;;;;;;32.05;19.75;;;-0.70;99.90;;;;;;5015554;28;20037;-81
2020/12/10 10:20:44;;;;;;;30.02;17.58;;;-0.60;99.90;;;;;;5022737;28;20093;-83
2020/12/10 10:23:10;;;;;;;23.40;13.90;;;-0.50;99.90;;;;;;5022507;28;20059;-80
2020/12/10 10:25:35;;;;;;;21.20;12.07;;;-0.30;99.90;;;;;;5025669;28;20402;-83
2020/12/10 10:28:01;;;;;;;35.85;19.10;;;-0.20;99.90;;;;;;5027385;28;20796;-83
2020/12/10 10:30:27;;;;;;;27.40;15.32;;;0.00;99.90;;;;;;5029481;28;20071;-81
2020/12/10 10:32:53;;;;;;;27.00;14.27;;;0.10;99.90;;;;;;5020506;28;20380;-81
2020/12/10 10:35:18;;;;;;;20.52;12.52;;;0.20;99.90;;;;;;5032595;28;20037;-81
2020/12/10 10:37:46;;;;;;;26.63;13.80;;;0.40;99.90;;;;;;5040344;28;20474;-81
2020/12/10 10:40:11;;;;;;;25.42;15.30;;;0.40;99.90;;;;;;5027170;28;20037;-81
2020/12/10 10:42:37;;;;;;;25.10;16.50;;;0.50;99.90;;;;;;5043827;28;20029;-81
2020/12/10 10:45:03;;;;;;;23.90;13.23;;;0.70;99.90;;;;;;5040750;28;20123;-80
2020/12/10 10:47:29;;;;;;;23.50;13.13;;;0.80;99.90;;;;;;5045715;28;20017;-81
2020/12/10 10:49:55;;;;;;;19.13;10.70;;;0.80;99.90;;;;;;5040389;28;20037;-81
2020/12/10 10:52:20;;;;;;;29.42;14.55;;;0.90;99.90;;;;;;5039086;28;20092;-81
2020/12/10 10:54:46;;;;;;;21.65;12.82;;;1.00;99.90;;;;;;5041061;28;20044;-81
2020/12/10 10:57:12;;;;;;;20.83;12.15;;;1.10;99.90;;;;;;5021906;28;20509;-81
2020/12/10 10:59:37;;;;;;;20.10;12.57;;;1.10;99.90;;;;;;5043409;28;20048;-80
2020/12/10 11:02:03;;;;;;;25.95;12.95;;;1.30;99.90;;;;;;5017087;28;20041;-81
2020/12/10 11:04:29;;;;;;;22.08;12.88;;;1.40;99.90;;;;;;5044571;28;20387;-81
2020/12/10 11:06:55;;;;;;;23.52;13.75;;;1.30;99.90;;;;;;5042110;28;20025;-81
2020/12/10 11:09:20;;;;;;;42.20;28.48;;;1.40;99.90;;;;;;5025145;28;20048;-81
2020/12/10 11:11:46;;;;;;;41.10;23.75;;;1.40;99.90;;;;;;5037909;28;20036;-81
2020/12/10 11:14:11;;;;;;;30.42;18.30;;;1.50;99.90;;;;;;5039214;28;20143;-83
2020/12/10 11:16:37;;;;;;;29.30;15.95;;;1.60;99.90;;;;;;5027520;28;20040;-80
2020/12/10 11:19:03;;;;;;;24.48;15.10;;;1.70;99.90;;;;;;5042406;28;20380;-81
2020/12/10 11:21:29;;;;;;;23.33;14.98;;;1.60;99.90;;;;;;5038641;28;20017;-81
2020/12/10 11:23:54;;;;;;;20.02;11.48;;;1.60;99.90;;;;;;5020688;28;20050;-83
2020/12/10 11:26:20;;;;;;;14.30;8.45;;;1.70;99.90;;;;;;5014819;28;20384;-81
2020/12/10 11:28:46;;;;;;;14.15;8.52;;;1.80;99.90;;;;;;5013956;28;20033;-81
2020/12/10 11:31:12;;;;;;;10.95;7.05;;;1.80;99.90;;;;;;5019071;28;20486;-81
2020/12/10 11:33:39;;;;;;;18.23;9.52;;;1.90;99.90;;;;;;5021271;28;20040;-84
2020/12/10 11:36:05;;;;;;;17.60;10.82;;;2.00;99.90;;;;;;5020591;28;20033;-81
2020/12/10 11:38:31;;;;;;;15.85;9.68;;;2.10;99.90;;;;;;5013917;28;20401;-81
2020/12/10 11:40:56;;;;;;;25.27;9.07;;;2.10;99.90;;;;;;5012561;28;20038;-80
2020/12/10 11:43:22;;;;;;;16.30;8.25;;;2.20;99.90;;;;;;5021477;28;20036;-80
2020/12/10 11:45:48;;;;;;;16.80;7.90;;;2.30;99.90;;;;;;5021483;28;20068;-81
2020/12/10 11:48:13;;;;;;;9.98;5.35;;;2.30;99.90;;;;;;5024244;28;20037;-81
2020/12/10 11:50:39;;;;;;;11.27;5.63;;;2.40;99.90;;;;;;5033282;28;20148;-81
2020/12/10 11:53:06;;;;;;;11.55;4.93;;;2.50;99.90;;;;;;5011379;28;20034;-81
2020/12/10 11:55:31;;;;;;;11.23;5.20;;;2.50;99.90;;;;;;5024264;28;20037;-81
2020/12/10 11:57:57;;;;;;;9.38;4.53;;;2.50;99.90;;;;;;5024202;28;20029;-84
2020/12/10 12:00:23;;;;;;;16.65;10.30;;;2.50;99.90;;;;;;5015050;28;20073;-81
2020/12/10 12:02:51;;;;;;;18.58;9.35;;;2.60;99.90;;;;;;5019720;28;20033;-84
2020/12/10 12:05:17;;;;;;;15.55;7.72;;;2.60;99.90;;;;;;5014238;28;20128;-81
2020/12/10 12:07:44;;;;;;;10.43;4.50;;;2.60;99.90;;;;;;5018178;28;20427;-81
2020/12/10 12:10:10;;;;;;;13.75;5.22;;;2.70;99.90;;;;;;5019981;28;20430;-81
2020/12/10 12:12:36;;;;;;;11.48;5.20;;;2.70;99.90;;;;;;5018742;28;20033;-81
2020/12/10 12:15:07;;;;;;;8.68;4.30;;;2.70;99.90;;;;;;5017044;28;20034;-83
2020/12/10 12:17:36;;;;;;;10.20;4.95;;;2.80;99.90;;;;;;5013720;28;20387;-81
2020/12/10 12:20:04;;;;;;;7.68;3.40;;;2.80;99.90;;;;;;5009750;28;20860;-81
2020/12/10 12:22:30;;;;;;;9.35;4.53;;;2.80;99.90;;;;;;5018016;28;20132;-81
2020/12/10 12:24:55;;;;;;;15.65;6.82;;;2.80;99.90;;;;;;5043669;28;20065;-81
2020/12/10 12:27:21;;;;;;;14.55;8.07;;;2.80;99.90;;;;;;5018769;28;20457;-80
2020/12/10 12:29:47;;;;;;;22.90;9.77;;;2.80;99.90;;;;;;5036448;28;20052;-84
2020/12/10 12:32:12;;;;;;;11.32;4.50;;;2.90;99.90;;;;;;5021328;28;20094;-82
2020/12/10 12:34:38;;;;;;;9.05;4.18;;;2.80;99.90;;;;;;5037529;28;20029;-81
2020/12/10 12:37:04;;;;;;;9.35;2.60;;;2.90;99.90;;;;;;5024469;28;20031;-82
2020/12/10 12:39:29;;;;;;;5.93;3.28;;;2.80;99.90;;;;;;5036454;28;20034;-81
2020/12/10 12:41:55;;;;;;;16.77;5.68;;;2.80;99.90;;;;;;5031743;28;20132;-81
2020/12/10 12:44:20;;;;;;;10.07;5.93;;;2.80;99.90;;;;;;5043752;28;20093;-81